createdAt,value
2017-12-24T00:00:15.241Z,949.8
2017-12-24T00:01:18.870Z,949.8
2017-12-24T00:02:22.648Z,949.8
2017-12-24T00:03:26.169Z,949.8
2017-12-24T00:04:31.757Z,949.8
2017-12-24T00:05:35.784Z,950.8
2017-12-24T00:06:41.254Z,950.7
2017-12-24T00:07:47.703Z,949.8
2017-12-24T00:08:52.828Z,949.8
2017-12-24T00:09:57.334Z,949.9
2017-12-24T00:11:02.094Z,949.8
2017-12-24T00:12:06.207Z,949.9
2017-12-24T00:13:09.836Z,949.7
2017-12-24T00:14:13.887Z,950.7
2017-12-24T00:15:17.442Z,949.8
2017-12-24T00:16:21.661Z,950.7
2017-12-24T00:17:25.436Z,949.8
2017-12-24T00:18:32.713Z,949.8
2017-12-24T00:19:36.361Z,943.7
2017-12-24T00:20:40.008Z,949.8
2017-12-24T00:21:43.544Z,949.8
2017-12-24T00:22:47.743Z,949.8
2017-12-24T00:23:51.948Z,949.8
2017-12-24T00:24:56.177Z,950.8
2017-12-24T00:25:59.695Z,949.8
2017-12-24T00:27:03.169Z,949.8
2017-12-24T00:28:06.584Z,949.8
2017-12-24T00:29:14.217Z,949.8
2017-12-24T00:30:17.784Z,949.8
2017-12-24T00:31:21.217Z,950.7
2017-12-24T00:32:24.633Z,949.7
2017-12-24T00:33:27.972Z,949.8
2017-12-24T00:34:31.395Z,950.2
2017-12-24T00:35:34.853Z,949.8
2017-12-24T00:36:39.309Z,949.8
2017-12-24T00:37:42.909Z,949.8
2017-12-24T00:38:46.483Z,949.7
2017-12-24T00:39:53.818Z,949.8
2017-12-24T00:40:57.440Z,949.8
2017-12-24T00:42:01.687Z,949.7
2017-12-24T00:43:05.316Z,949.7
2017-12-24T00:44:08.827Z,950.8
2017-12-24T00:45:12.400Z,949.8
2017-12-24T00:46:15.829Z,949.8
2017-12-24T00:47:19.930Z,949.8
2017-12-24T00:48:23.450Z,950.7
2017-12-24T00:49:27.072Z,949.7
2017-12-24T00:50:34.171Z,949.8
2017-12-24T00:51:38.489Z,949.8
2017-12-24T00:52:42.348Z,949.7
2017-12-24T00:53:46.717Z,949.7
2017-12-24T00:54:50.189Z,949.7
2017-12-24T00:55:53.512Z,949.8
2017-12-24T00:56:57.690Z,949.7
2017-12-24T00:58:01.173Z,949.7
2017-12-24T00:59:04.662Z,950.6
2017-12-24T01:00:08.120Z,949.7
2017-12-24T01:01:15.145Z,949.7
2017-12-24T01:02:19.413Z,949.7
2017-12-24T01:03:22.899Z,949.6
2017-12-24T01:04:26.382Z,950.6
2017-12-24T01:05:29.826Z,949.6
2017-12-24T01:06:33.282Z,949.7
2017-12-24T01:07:36.748Z,950.7
2017-12-24T01:08:41.060Z,949.7
2017-12-24T01:09:44.537Z,950.7
2017-12-24T01:10:48.066Z,949.7
2017-12-24T01:11:56.651Z,949.7
2017-12-24T01:13:00.064Z,949.7
2017-12-24T01:14:03.755Z,949.7
2017-12-24T01:15:07.907Z,949.7
2017-12-24T01:16:11.969Z,949.6
2017-12-24T01:17:16.025Z,950.7
2017-12-24T01:18:19.476Z,949.7
2017-12-24T01:19:22.924Z,950.7
2017-12-24T01:20:26.534Z,949.6
2017-12-24T01:21:30.731Z,949.6
2017-12-24T01:22:37.768Z,949.7
2017-12-24T01:23:41.219Z,949.7
2017-12-24T01:24:45.187Z,949.7
2017-12-24T01:25:49.321Z,949.7
2017-12-24T01:26:53.388Z,949.7
2017-12-24T01:27:57.644Z,949.6
2017-12-24T01:29:01.109Z,949.7
2017-12-24T01:30:05.376Z,949.6
2017-12-24T01:31:09.405Z,950.7
2017-12-24T01:32:12.992Z,949.7
2017-12-24T01:33:20.138Z,949.6
2017-12-24T01:34:23.765Z,949.6
2017-12-24T01:35:28.617Z,949.6
2017-12-24T01:36:33.387Z,950.3
2017-12-24T01:37:37.464Z,949.7
2017-12-24T01:38:41.633Z,950.6
2017-12-24T01:39:46.458Z,949.6
2017-12-24T01:40:52.150Z,950.5
2017-12-24T01:41:56.737Z,949.4
2017-12-24T01:43:01.675Z,949.5
2017-12-24T01:44:09.393Z,949.4
2017-12-24T01:45:13.587Z,949.4
2017-12-24T01:46:16.978Z,950.5
2017-12-24T01:47:21.360Z,949.4
2017-12-24T01:48:24.818Z,949.5
2017-12-24T01:49:28.325Z,949.4
2017-12-24T01:50:32.424Z,949.3
2017-12-24T01:51:36.628Z,949.3
2017-12-24T01:52:40.693Z,949.3
2017-12-24T01:53:44.086Z,949.4
2017-12-24T01:54:51.259Z,949.3
2017-12-24T01:55:54.795Z,949.4
2017-12-24T01:56:58.167Z,949.4
2017-12-24T01:58:01.598Z,949.4
2017-12-24T01:59:05.723Z,950.4
2017-12-24T02:00:09.160Z,949.4
2017-12-24T02:01:12.468Z,949.4
2017-12-24T02:02:16.318Z,949.4
2017-12-24T02:03:19.877Z,949.4
2017-12-24T02:04:23.355Z,950.3
2017-12-24T02:05:31.095Z,950.3
2017-12-24T02:06:34.620Z,949.3
2017-12-24T02:07:38.391Z,949.3
2017-12-24T02:08:41.868Z,950.3
2017-12-24T02:09:45.301Z,950.3
2017-12-24T02:10:48.667Z,949.3
2017-12-24T02:11:52.118Z,949.3
2017-12-24T02:12:56.575Z,949.2
2017-12-24T02:13:59.924Z,949.2
2017-12-24T02:15:03.555Z,950.1
2017-12-24T02:16:10.345Z,950.2
2017-12-24T02:17:13.966Z,949.1
2017-12-24T02:18:18.708Z,950.2
2017-12-24T02:19:22.226Z,949
2017-12-24T02:20:25.610Z,949.1
2017-12-24T02:21:29.153Z,949
2017-12-24T02:22:32.811Z,949
2017-12-24T02:23:36.265Z,949
2017-12-24T02:24:39.574Z,950
2017-12-24T02:25:43.023Z,949
2017-12-24T02:26:50.046Z,949
2017-12-24T02:27:53.514Z,949
2017-12-24T02:28:58.062Z,949
2017-12-24T02:30:02.443Z,949
2017-12-24T02:31:05.819Z,950
2017-12-24T02:32:09.304Z,948.9
2017-12-24T02:33:14.297Z,948.9
2017-12-24T02:34:18.051Z,948.9
2017-12-24T02:35:21.476Z,948.9
2017-12-24T02:36:24.914Z,949.9
2017-12-24T02:37:32.077Z,948.9
2017-12-24T02:38:35.668Z,948.8
2017-12-24T02:39:40.042Z,949.9
2017-12-24T02:40:43.570Z,949.8
2017-12-24T02:41:47.105Z,948.9
2017-12-24T02:42:50.579Z,949.8
2017-12-24T02:43:54.055Z,948.8
2017-12-24T02:44:58.270Z,948.8
2017-12-24T02:46:02.514Z,948.8
2017-12-24T02:47:05.897Z,948.9
2017-12-24T02:48:12.819Z,948.8
2017-12-24T02:49:16.404Z,948.8
2017-12-24T02:50:20.810Z,948.8
2017-12-24T02:51:24.239Z,948.9
2017-12-24T02:52:30.389Z,948.8
2017-12-24T02:53:34.612Z,948.7
2017-12-24T02:54:37.984Z,948.6
2017-12-24T02:55:42.738Z,948.7
2017-12-24T02:56:46.887Z,948.7
2017-12-24T02:57:51.091Z,948.7
2017-12-24T02:58:57.889Z,948.7
2017-12-24T03:00:01.080Z,948.7
2017-12-24T03:01:05.814Z,948.6
2017-12-24T03:02:09.952Z,948.7
2017-12-24T03:03:13.532Z,948.7
2017-12-24T03:04:17.428Z,948.7
2017-12-24T03:05:20.781Z,948.7
2017-12-24T03:06:25.093Z,948.7
2017-12-24T03:07:28.911Z,948.7
2017-12-24T03:08:32.479Z,948.5
2017-12-24T03:09:42.275Z,943
2017-12-24T03:10:47.418Z,948.5
2017-12-24T03:11:51.770Z,948.6
2017-12-24T03:12:55.118Z,948.5
2017-12-24T03:13:58.649Z,948.5
2017-12-24T03:15:02.288Z,948.5
2017-12-24T03:16:05.964Z,949.5
2017-12-24T03:17:10.130Z,948.4
2017-12-24T03:18:14.129Z,948.5
2017-12-24T03:19:18.118Z,941.8
2017-12-24T03:20:25.151Z,948.4
2017-12-24T03:21:29.162Z,949.4
2017-12-24T03:22:32.557Z,948.4
2017-12-24T03:23:36.191Z,948.3
2017-12-24T03:24:39.615Z,948.3
2017-12-24T03:25:43.890Z,948.3
2017-12-24T03:26:47.570Z,948.4
2017-12-24T03:27:51.150Z,948.3
2017-12-24T03:28:54.663Z,948.4
2017-12-24T03:29:58.869Z,948.4
2017-12-24T03:31:04.991Z,948.4
2017-12-24T03:32:09.017Z,948.4
2017-12-24T03:33:13.454Z,948.5
2017-12-24T03:34:16.879Z,948.4
2017-12-24T03:35:20.283Z,948.4
2017-12-24T03:36:23.817Z,948.4
2017-12-24T03:37:27.212Z,948.5
2017-12-24T03:38:30.914Z,948.5
2017-12-24T03:39:34.357Z,948.5
2017-12-24T03:40:37.839Z,948.5
2017-12-24T03:41:44.906Z,948.6
2017-12-24T03:42:48.476Z,942.7
2017-12-24T03:43:51.803Z,948.7
2017-12-24T03:44:55.483Z,948.7
2017-12-24T03:45:59.006Z,948.7
2017-12-24T03:47:02.406Z,948.7
2017-12-24T03:48:05.856Z,948.6
2017-12-24T03:49:09.722Z,948.6
2017-12-24T03:50:13.326Z,948.6
2017-12-24T03:51:16.813Z,948.7
2017-12-24T03:52:23.903Z,948.6
2017-12-24T03:53:28.115Z,948.6
2017-12-24T03:54:31.553Z,948.6
2017-12-24T03:55:35.640Z,948.6
2017-12-24T03:56:39.074Z,948.6
2017-12-24T03:57:42.546Z,948.6
2017-12-24T03:58:46.170Z,948.5
2017-12-24T03:59:50.079Z,949.6
2017-12-24T04:00:53.567Z,948.5
2017-12-24T04:01:57.072Z,949.5
2017-12-24T04:03:05.042Z,948.5
2017-12-24T04:04:08.563Z,948.4
2017-12-24T04:05:12.399Z,948.4
2017-12-24T04:06:15.782Z,948.4
2017-12-24T04:07:20.258Z,948.4
2017-12-24T04:08:23.822Z,948.4
2017-12-24T04:09:27.309Z,948.4
2017-12-24T04:10:30.736Z,949.4
2017-12-24T04:11:34.923Z,948.4
2017-12-24T04:12:38.342Z,948.5
2017-12-24T04:13:45.269Z,948.5
2017-12-24T04:14:48.659Z,948.5
2017-12-24T04:15:52.537Z,948.5
2017-12-24T04:16:55.937Z,948.4
2017-12-24T04:17:59.382Z,948.5
2017-12-24T04:19:02.951Z,948.6
2017-12-24T04:20:06.301Z,948.5
2017-12-24T04:21:09.820Z,948.5
2017-12-24T04:22:13.193Z,948.5
2017-12-24T04:23:16.745Z,949.7
2017-12-24T04:24:23.968Z,948.6
2017-12-24T04:25:27.345Z,948.5
2017-12-24T04:26:31.797Z,948.5
2017-12-24T04:27:35.360Z,948.5
2017-12-24T04:28:39.618Z,942
2017-12-24T04:29:43.187Z,949.6
2017-12-24T04:30:47.361Z,948.7
2017-12-24T04:31:51.188Z,948.5
2017-12-24T04:32:54.744Z,948.6
2017-12-24T04:33:58.290Z,949.6
2017-12-24T04:35:05.323Z,948.5
2017-12-24T04:36:08.874Z,948.5
2017-12-24T04:37:12.724Z,948.5
2017-12-24T04:38:16.266Z,948.5
2017-12-24T04:39:19.662Z,948.5
2017-12-24T04:40:23.783Z,948.5
2017-12-24T04:41:27.220Z,948.5
2017-12-24T04:42:31.576Z,948.5
2017-12-24T04:43:34.992Z,948.6
2017-12-24T04:44:38.530Z,948.6
2017-12-24T04:45:47.132Z,948.5
2017-12-24T04:46:52.133Z,948.5
2017-12-24T04:47:57.412Z,948.5
2017-12-24T04:49:00.718Z,948.5
2017-12-24T04:50:05.406Z,948.5
2017-12-24T04:51:08.861Z,948.5
2017-12-24T04:52:12.480Z,948.5
2017-12-24T04:53:15.998Z,948.4
2017-12-24T04:54:19.359Z,948.4
2017-12-24T04:55:23.305Z,948.5
2017-12-24T04:56:30.620Z,948.5
2017-12-24T04:57:34.891Z,948.5
2017-12-24T04:58:39.331Z,948.5
2017-12-24T04:59:44.106Z,948.3
2017-12-24T05:00:47.692Z,948.6
2017-12-24T05:01:51.211Z,948.6
2017-12-24T05:02:54.543Z,949.6
2017-12-24T05:03:58.164Z,948.6
2017-12-24T05:05:02.335Z,948.7
2017-12-24T05:06:05.840Z,948.6
2017-12-24T05:07:14.152Z,948.6
2017-12-24T05:08:18.284Z,949.6
2017-12-24T05:09:21.739Z,948.7
2017-12-24T05:10:25.319Z,948.5
2017-12-24T05:11:28.792Z,949.6
2017-12-24T05:12:32.315Z,949.6
2017-12-24T05:13:35.606Z,948.6
2017-12-24T05:14:39.369Z,949.6
2017-12-24T05:15:43.464Z,948.6
2017-12-24T05:16:47.668Z,948.6
2017-12-24T05:17:54.739Z,948.6
2017-12-24T05:18:58.103Z,948.7
2017-12-24T05:20:02.520Z,948.6
2017-12-24T05:21:06.046Z,948.6
2017-12-24T05:22:09.516Z,948.7
2017-12-24T05:23:13.031Z,948.6
2017-12-24T05:24:16.699Z,948.7
2017-12-24T05:25:19.970Z,948.7
2017-12-24T05:26:23.496Z,942
2017-12-24T05:27:26.870Z,942.8
2017-12-24T05:28:33.927Z,948.6
2017-12-24T05:29:37.560Z,949.6
2017-12-24T05:30:41.505Z,948.6
2017-12-24T05:31:44.933Z,949.6
2017-12-24T05:32:48.469Z,949.6
2017-12-24T05:33:51.967Z,948.6
2017-12-24T05:34:55.357Z,948.7
2017-12-24T05:35:58.931Z,948.6
2017-12-24T05:37:02.523Z,948.7
2017-12-24T05:38:06.134Z,948.6
2017-12-24T05:39:12.940Z,948.6
2017-12-24T05:40:16.467Z,949.8
2017-12-24T05:41:20.247Z,948.7
2017-12-24T05:42:23.719Z,949.7
2017-12-24T05:43:27.280Z,949.7
2017-12-24T05:44:30.702Z,949.7
2017-12-24T05:45:34.132Z,948.7
2017-12-24T05:46:38.086Z,949.7
2017-12-24T05:47:42.463Z,949
2017-12-24T05:48:46.682Z,948.6
2017-12-24T05:49:53.031Z,948.6
2017-12-24T05:50:56.613Z,948.6
2017-12-24T05:52:00.070Z,948.6
2017-12-24T05:53:04.325Z,948.7
2017-12-24T05:54:07.906Z,948.6
2017-12-24T05:55:12.414Z,948.5
2017-12-24T05:56:15.954Z,949.6
2017-12-24T05:57:20.429Z,948.7
2017-12-24T05:58:24.558Z,949.7
2017-12-24T05:59:28.695Z,948.6
2017-12-24T06:00:37.054Z,948.6
2017-12-24T06:01:40.952Z,948.6
2017-12-24T06:02:44.483Z,948.6
2017-12-24T06:03:48.945Z,949.7
2017-12-24T06:04:52.466Z,948.6
2017-12-24T06:05:57.195Z,948.6
2017-12-24T06:07:01.364Z,948.6
2017-12-24T06:08:05.587Z,948.7
2017-12-24T06:09:08.936Z,948.7
2017-12-24T06:10:12.414Z,948.7
2017-12-24T06:11:20.969Z,948.7
2017-12-24T06:12:25.514Z,948.7
2017-12-24T06:13:29.377Z,947.5
2017-12-24T06:14:34.319Z,948.7
2017-12-24T06:15:37.702Z,948.7
2017-12-24T06:16:41.212Z,949.7
2017-12-24T06:17:44.609Z,948.7
2017-12-24T06:18:47.970Z,941.9
2017-12-24T06:19:51.367Z,949.7
2017-12-24T06:20:56.497Z,948.6
2017-12-24T06:22:04.229Z,948.6
2017-12-24T06:23:07.653Z,948.6
2017-12-24T06:24:11.028Z,948.7
2017-12-24T06:25:14.524Z,948.6
2017-12-24T06:26:18.733Z,948.6
2017-12-24T06:27:22.308Z,948.6
2017-12-24T06:28:27.424Z,948.9
2017-12-24T06:29:33.137Z,948.5
2017-12-24T06:30:37.878Z,948.1
2017-12-24T06:31:42.932Z,948.5
2017-12-24T06:32:51.430Z,948.4
2017-12-24T06:33:54.837Z,948.4
2017-12-24T06:34:59.996Z,948.3
2017-12-24T06:36:03.653Z,948.4
2017-12-24T06:37:08.383Z,948.4
2017-12-24T06:38:12.464Z,949.6
2017-12-24T06:39:16.987Z,949.5
2017-12-24T06:40:21.309Z,948.4
2017-12-24T06:41:24.954Z,948.4
2017-12-24T06:42:28.543Z,948.3
2017-12-24T06:43:36.356Z,948.4
2017-12-24T06:44:39.813Z,948.3
2017-12-24T06:45:43.633Z,948.3
2017-12-24T06:46:47.153Z,948.3
2017-12-24T06:47:50.618Z,948.3
2017-12-24T06:48:55.316Z,948.3
2017-12-24T06:49:58.740Z,948.2
2017-12-24T06:51:02.575Z,948.1
2017-12-24T06:52:06.739Z,948.1
2017-12-24T06:53:10.323Z,948.1
2017-12-24T06:54:17.988Z,948.1
2017-12-24T06:55:22.702Z,948.2
2017-12-24T06:56:25.988Z,948.1
2017-12-24T06:57:30.211Z,949
2017-12-24T06:58:33.652Z,948
2017-12-24T06:59:37.096Z,948
2017-12-24T07:00:41.739Z,948.9
2017-12-24T07:01:45.252Z,949
2017-12-24T07:02:50.342Z,947.9
2017-12-24T07:03:53.823Z,948.9
2017-12-24T07:05:01.711Z,949
2017-12-24T07:06:05.270Z,947.9
2017-12-24T07:07:09.399Z,948
2017-12-24T07:08:12.958Z,948
2017-12-24T07:09:17.005Z,947.9
2017-12-24T07:10:20.369Z,948
2017-12-24T07:11:24.514Z,947.9
2017-12-24T07:12:28.276Z,947.9
2017-12-24T07:13:31.717Z,947.9
2017-12-24T07:14:35.287Z,948
2017-12-24T07:15:43.166Z,947.9
2017-12-24T07:16:46.623Z,947.9
2017-12-24T07:17:50.304Z,948
2017-12-24T07:18:54.510Z,947.9
2017-12-24T07:19:58.108Z,948
2017-12-24T07:21:02.218Z,947.9
2017-12-24T07:22:05.727Z,947.9
2017-12-24T07:23:13.360Z,947.9
2017-12-24T07:24:16.856Z,948.9
2017-12-24T07:25:20.583Z,948
2017-12-24T07:26:27.801Z,949
2017-12-24T07:27:31.802Z,948.9
2017-12-24T07:28:35.731Z,948.2
2017-12-24T07:29:39.175Z,948.9
2017-12-24T07:30:42.609Z,948
2017-12-24T07:31:47.110Z,948
2017-12-24T07:32:50.526Z,948
2017-12-24T07:33:53.925Z,949
2017-12-24T07:34:57.474Z,948
2017-12-24T07:36:01.981Z,948
2017-12-24T07:37:09.307Z,948
2017-12-24T07:38:12.773Z,947.9
2017-12-24T07:39:16.483Z,947.9
2017-12-24T07:40:20.018Z,947.9
2017-12-24T07:41:23.513Z,947.9
2017-12-24T07:42:27.751Z,947.9
2017-12-24T07:43:31.361Z,948.9
2017-12-24T07:44:35.086Z,948
2017-12-24T07:45:38.500Z,947.8
2017-12-24T07:46:42.678Z,947.8
2017-12-24T07:47:49.643Z,948.9
2017-12-24T07:48:53.709Z,947.8
2017-12-24T07:49:57.303Z,947.8
2017-12-24T07:51:00.693Z,947.8
2017-12-24T07:52:04.255Z,947.8
2017-12-24T07:53:07.816Z,947.8
2017-12-24T07:54:11.303Z,947.8
2017-12-24T07:55:15.842Z,947.8
2017-12-24T07:56:19.305Z,947.8
2017-12-24T07:57:22.787Z,947.7
2017-12-24T07:58:32.790Z,947.8
2017-12-24T07:59:36.436Z,948.8
2017-12-24T08:00:39.932Z,947.7
2017-12-24T08:01:43.351Z,947.8
2017-12-24T08:02:46.843Z,947.7
2017-12-24T08:03:50.192Z,947.7
2017-12-24T08:04:54.191Z,947.7
2017-12-24T08:05:58.116Z,948.8
2017-12-24T08:07:03.955Z,947.7
2017-12-24T08:08:07.292Z,947.7
2017-12-24T08:09:14.509Z,947.7
2017-12-24T08:10:17.934Z,947.7
2017-12-24T08:11:21.474Z,947.6
2017-12-24T08:12:25.058Z,947.7
2017-12-24T08:13:29.494Z,947.7
2017-12-24T08:14:33.167Z,947.7
2017-12-24T08:15:37.412Z,947.6
2017-12-24T08:16:40.915Z,947.7
2017-12-24T08:17:44.387Z,947.7
2017-12-24T08:18:48.405Z,947.7
2017-12-24T08:19:55.592Z,948.7
2017-12-24T08:20:59.086Z,947.7
2017-12-24T08:22:03.390Z,947.8
2017-12-24T08:23:06.821Z,948.7
2017-12-24T08:24:10.265Z,947.7
2017-12-24T08:25:13.754Z,947.7
2017-12-24T08:26:17.152Z,947.8
2017-12-24T08:27:20.640Z,948.7
2017-12-24T08:28:25.117Z,948.7
2017-12-24T08:29:29.657Z,947.7
2017-12-24T08:30:36.735Z,947.7
2017-12-24T08:31:40.167Z,947.7
2017-12-24T08:32:45.836Z,947.7
2017-12-24T08:33:49.165Z,947.7
2017-12-24T08:34:53.108Z,947.7
2017-12-24T08:35:56.500Z,947.7
2017-12-24T08:37:00.769Z,947.7
2017-12-24T08:38:04.230Z,947.7
2017-12-24T08:39:07.947Z,947.7
2017-12-24T08:40:13.961Z,948.7
2017-12-24T08:41:21.084Z,947.8
2017-12-24T08:42:24.671Z,947.8
2017-12-24T08:43:28.305Z,947.8
2017-12-24T08:44:31.745Z,947.8
2017-12-24T08:45:35.404Z,947.8
2017-12-24T08:46:38.846Z,947.8
2017-12-24T08:47:43.283Z,947.9
2017-12-24T08:48:47.524Z,947.8
2017-12-24T08:49:50.964Z,948.7
2017-12-24T08:50:54.810Z,947.8
2017-12-24T08:52:02.199Z,947.8
2017-12-24T08:53:05.771Z,948.7
2017-12-24T08:54:09.316Z,947.8
2017-12-24T08:55:14.182Z,947.8
2017-12-24T08:56:19.159Z,947.7
2017-12-24T08:57:23.498Z,947.7
2017-12-24T08:58:29.005Z,947.8
2017-12-24T08:59:32.820Z,948.8
2017-12-24T09:00:36.440Z,948.8
2017-12-24T09:01:39.887Z,947.7
2017-12-24T09:02:48.465Z,948.7
2017-12-24T09:03:53.058Z,948.7
2017-12-24T09:05:00.065Z,947.7
2017-12-24T09:06:06.267Z,948.7
2017-12-24T09:07:12.589Z,947.7
2017-12-24T09:08:16.130Z,947.8
2017-12-24T09:09:21.631Z,947.7
2017-12-24T09:10:29.064Z,948.7
2017-12-24T09:11:35.883Z,947.7
2017-12-24T09:12:41.386Z,947.7
2017-12-24T09:13:49.519Z,947.7
2017-12-24T09:14:57.712Z,947.7
2017-12-24T09:16:04.133Z,947.7
2017-12-24T09:17:12.860Z,947.7
2017-12-24T09:18:22.994Z,947.7
2017-12-24T09:19:28.683Z,947.7
2017-12-24T09:20:35.764Z,947.7
2017-12-24T09:21:43.661Z,947.7
2017-12-24T09:22:47.205Z,947.8
2017-12-24T09:23:50.653Z,948.7
2017-12-24T09:25:01.407Z,947.7
2017-12-24T09:26:04.857Z,947.7
2017-12-24T09:27:09.363Z,947.7
2017-12-24T09:28:17.546Z,947.8
2017-12-24T09:29:22.511Z,947.7
2017-12-24T09:30:27.450Z,947.6
2017-12-24T09:31:31.555Z,947.6
2017-12-24T09:32:36.761Z,947.7
2017-12-24T09:33:40.312Z,947.7
2017-12-24T09:34:43.895Z,947.6
2017-12-24T09:35:51.744Z,947.7
2017-12-24T09:36:55.287Z,947.7
2017-12-24T09:37:59.917Z,947.6
2017-12-24T09:39:03.534Z,947.6
2017-12-24T09:40:07.178Z,947.6
2017-12-24T09:41:11.694Z,947.5
2017-12-24T09:42:15.944Z,947.6
2017-12-24T09:43:20.245Z,947.6
2017-12-24T09:44:25.117Z,947.6
2017-12-24T09:45:30.158Z,947.6
2017-12-24T09:46:40.375Z,941.6
2017-12-24T09:47:47.978Z,947.5
2017-12-24T09:48:54.168Z,947.6
2017-12-24T09:49:57.870Z,947.5
2017-12-24T09:51:03.159Z,947.6
2017-12-24T09:52:07.363Z,947.5
2017-12-24T09:53:14.144Z,948.4
2017-12-24T09:54:17.767Z,948.5
2017-12-24T09:55:22.510Z,948.5
2017-12-24T09:56:26.103Z,947.6
2017-12-24T09:57:35.564Z,947.4
2017-12-24T09:58:39.094Z,947.5
2017-12-24T09:59:42.652Z,948.5
2017-12-24T10:00:46.448Z,947.5
2017-12-24T10:01:49.859Z,947.4
2017-12-24T10:02:53.299Z,942.2
2017-12-24T10:03:58.208Z,948.4
2017-12-24T10:05:02.343Z,947.4
2017-12-24T10:06:06.570Z,947.5
2017-12-24T10:07:10.904Z,947.5
2017-12-24T10:08:20.000Z,946.3
2017-12-24T10:09:24.257Z,947.5
2017-12-24T10:10:27.804Z,947.4
2017-12-24T10:11:31.659Z,947.5
2017-12-24T10:12:35.843Z,947.4
2017-12-24T10:13:39.301Z,947.3
2017-12-24T10:14:42.464Z,947.3
2017-12-24T10:17:22.719Z,947.2
2017-12-24T10:18:27.358Z,947.3
2017-12-24T10:19:31.269Z,947.2
2017-12-24T10:20:42.182Z,947.2
2017-12-24T10:21:45.710Z,947.3
2017-12-24T10:22:49.762Z,947.2
2017-12-24T10:23:55.667Z,947.2
2017-12-24T10:24:59.458Z,947.1
2017-12-24T10:26:03.611Z,947.1
2017-12-24T10:27:08.122Z,947.2
2017-12-24T10:28:12.109Z,947.2
2017-12-24T10:29:16.300Z,947.1
2017-12-24T10:30:19.695Z,947.1
2017-12-24T10:31:28.924Z,947.1
2017-12-24T10:32:37.557Z,948
2017-12-24T10:33:42.862Z,947.1
2017-12-24T10:34:53.127Z,947
2017-12-24T10:35:57.860Z,946.6
2017-12-24T10:37:03.681Z,947.1
2017-12-24T10:38:10.124Z,947.1
2017-12-24T10:39:31.299Z,947.1
2017-12-24T10:40:35.510Z,947
2017-12-24T10:41:45.028Z,947
2017-12-24T10:42:52.843Z,947
2017-12-24T10:43:56.345Z,947.1
2017-12-24T10:45:00.408Z,947
2017-12-24T10:46:04.126Z,946.9
2017-12-24T10:47:07.743Z,947
2017-12-24T10:48:11.539Z,946.9
2017-12-24T10:49:15.238Z,947
2017-12-24T10:50:20.070Z,941.3
2017-12-24T10:51:24.409Z,947
2017-12-24T10:52:28.026Z,947
2017-12-24T10:53:37.703Z,947.9
2017-12-24T10:54:42.513Z,946.9
2017-12-24T10:55:46.094Z,946.9
2017-12-24T10:56:50.901Z,946.9
2017-12-24T10:57:54.390Z,943.3
2017-12-24T10:58:58.478Z,946.8
2017-12-24T11:00:02.020Z,946.8
2017-12-24T11:01:06.260Z,946.8
2017-12-24T11:02:13.674Z,946.9
2017-12-24T11:03:19.478Z,947.8
2017-12-24T11:04:28.932Z,946.8
2017-12-24T11:05:34.968Z,947.7
2017-12-24T11:06:39.325Z,946.8
2017-12-24T11:07:42.795Z,946.7
2017-12-24T11:08:46.539Z,946.6
2017-12-24T11:09:50.606Z,947.5
2017-12-24T11:10:54.079Z,947.6
2017-12-24T11:11:59.169Z,946.7
2017-12-24T11:13:03.622Z,946.6
2017-12-24T11:14:07.741Z,946.6
2017-12-24T11:15:17.234Z,946.6
2017-12-24T11:16:20.626Z,947.6
2017-12-24T11:17:24.646Z,946.7
2017-12-24T11:18:32.839Z,946.6
2017-12-24T11:19:39.405Z,946.7
2017-12-24T11:20:45.328Z,945.5
2017-12-24T11:21:49.692Z,947.6
2017-12-24T11:22:53.875Z,947.5
2017-12-24T11:23:57.184Z,946.6
2017-12-24T11:25:04.955Z,946.6
2017-12-24T11:26:13.891Z,947.5
2017-12-24T11:27:18.915Z,946.6
2017-12-24T11:28:24.779Z,946.5
2017-12-24T11:29:32.452Z,946.5
2017-12-24T11:30:36.726Z,947.4
2017-12-24T11:31:42.681Z,946.5
2017-12-24T11:32:47.726Z,946.4
2017-12-24T11:33:51.394Z,946.4
2017-12-24T11:34:58.154Z,946.4
2017-12-24T11:36:03.574Z,946.4
2017-12-24T11:37:15.948Z,946.4
2017-12-24T11:38:26.303Z,946.3
2017-12-24T11:39:34.703Z,946.3
2017-12-24T11:40:42.996Z,946.3
2017-12-24T11:41:52.352Z,946.3
2017-12-24T11:43:00.346Z,946.3
2017-12-24T11:44:06.912Z,946.2
2017-12-24T11:45:11.808Z,946.2
2017-12-24T11:46:18.613Z,946.2
2017-12-24T11:47:26.619Z,946.2
2017-12-24T11:48:41.046Z,946.2
2017-12-24T11:49:48.106Z,946.1
2017-12-24T11:50:54.395Z,947.2
2017-12-24T11:51:59.489Z,946.1
2017-12-24T11:53:09.222Z,946.2
2017-12-24T11:54:16.487Z,946.1
2017-12-24T11:55:26.057Z,946.1
2017-12-24T11:56:34.808Z,946
2017-12-24T11:57:42.634Z,946
2017-12-24T11:58:53.333Z,945
2017-12-24T12:00:04.332Z,946
2017-12-24T12:01:13.173Z,946.5
2017-12-24T12:02:22.018Z,946
2017-12-24T12:03:27.090Z,946
2017-12-24T12:04:38.287Z,945.9
2017-12-24T12:05:50.309Z,945.9
2017-12-24T12:07:06.566Z,945.9
2017-12-24T12:08:19.056Z,946.8
2017-12-24T12:09:29.348Z,945.9
2017-12-24T12:10:35.313Z,945.9
2017-12-24T12:11:47.142Z,946.7
2017-12-24T12:12:51.525Z,945.8
2017-12-24T12:13:56.882Z,940.3
2017-12-24T12:15:01.486Z,945.8
2017-12-24T12:16:05.790Z,945.8
2017-12-24T12:17:09.748Z,945.8
2017-12-24T12:18:14.923Z,945.8
2017-12-24T12:19:19.480Z,946.6
2017-12-24T12:20:28.001Z,945.8
2017-12-24T12:21:34.332Z,945.8
2017-12-24T12:22:42.769Z,946.6
2017-12-24T12:23:46.934Z,945.8
2017-12-24T12:24:52.243Z,946.5
2017-12-24T12:25:58.944Z,945.8
2017-12-24T12:27:05.360Z,945.7
2017-12-24T12:28:10.949Z,945.7
2017-12-24T12:29:19.760Z,945.7
2017-12-24T12:30:23.887Z,945.7
2017-12-24T12:31:28.842Z,945.6
2017-12-24T12:32:34.985Z,945.7
2017-12-24T12:33:44.044Z,945.6
2017-12-24T12:34:51.885Z,945.6
2017-12-24T12:36:00.938Z,945.7
2017-12-24T12:37:07.790Z,945.6
2017-12-24T12:38:16.109Z,945.6
2017-12-24T12:39:24.956Z,946.4
2017-12-24T12:40:34.405Z,945.5
2017-12-24T12:41:42.656Z,945.5
2017-12-24T12:42:51.307Z,945.5
2017-12-24T12:43:58.893Z,945.5
2017-12-24T12:45:16.684Z,945.4
2017-12-24T12:46:26.483Z,946.3
2017-12-24T12:47:41.626Z,946.3
2017-12-24T12:48:52.735Z,945.3
2017-12-24T12:50:00.317Z,945.4
2017-12-24T12:51:12.653Z,945.4
2017-12-24T12:52:22.364Z,946.3
2017-12-24T12:53:33.960Z,945.4
2017-12-24T12:54:44.569Z,945.4
2017-12-24T12:55:52.301Z,945.4
2017-12-24T12:57:03.584Z,945.4
2017-12-24T12:58:06.963Z,945.5
2017-12-24T12:59:13.282Z,945.1
2017-12-24T13:00:22.207Z,945.4
2017-12-24T13:01:26.665Z,946.3
2017-12-24T13:02:31.659Z,945.3
2017-12-24T13:03:35.210Z,945.4
2017-12-24T13:04:40.694Z,945.3
2017-12-24T13:05:45.710Z,945.3
2017-12-24T13:06:55.689Z,945.3
2017-12-24T13:08:05.292Z,945.2
2017-12-24T13:09:11.427Z,945.2
2017-12-24T13:10:17.669Z,945.3
2017-12-24T13:11:23.214Z,945.3
2017-12-24T13:12:28.248Z,945.3
2017-12-24T13:13:32.548Z,945.3
2017-12-24T13:14:41.270Z,945.3
2017-12-24T13:15:46.509Z,945.2
2017-12-24T13:16:55.141Z,945.2
2017-12-24T13:17:59.986Z,945.3
2017-12-24T13:19:10.845Z,945.2
2017-12-24T13:20:16.435Z,946.2
2017-12-24T13:21:23.919Z,945.2
2017-12-24T13:22:27.324Z,945.2
2017-12-24T13:23:32.217Z,946.1
2017-12-24T13:24:40.799Z,945.3
2017-12-24T13:25:46.913Z,946.2
2017-12-24T13:26:55.585Z,945.2
2017-12-24T13:28:02.085Z,945.1
2017-12-24T13:29:06.333Z,945.2
2017-12-24T13:30:14.548Z,945.2
2017-12-24T13:31:31.350Z,945.2
2017-12-24T13:32:34.952Z,945.2
2017-12-24T13:33:39.374Z,946
2017-12-24T13:34:43.205Z,945.2
2017-12-24T13:35:50.224Z,946.1
2017-12-24T13:36:57.690Z,945.2
2017-12-24T13:38:03.443Z,945.2
2017-12-24T13:39:07.633Z,940
2017-12-24T13:40:13.599Z,945.1
2017-12-24T13:41:25.215Z,945.2
2017-12-24T13:42:30.987Z,945.1
2017-12-24T13:43:35.870Z,940.5
2017-12-24T13:44:41.891Z,943.7
2017-12-24T13:45:53.561Z,945
2017-12-24T13:47:00.035Z,945.1
2017-12-24T13:48:04.805Z,945.2
2017-12-24T13:49:09.823Z,946
2017-12-24T13:50:17.637Z,945
2017-12-24T13:51:22.750Z,945.1
2017-12-24T13:52:31.687Z,945.1
2017-12-24T13:53:38.142Z,945.9
2017-12-24T13:54:45.318Z,945.1
2017-12-24T13:55:55.606Z,946
2017-12-24T13:56:59.180Z,945.1
2017-12-24T13:58:06.588Z,945
2017-12-24T13:59:11.324Z,940.2
2017-12-24T14:00:16.087Z,945.1
2017-12-24T14:01:21.000Z,945
2017-12-24T14:02:24.421Z,945